Anchorage, AK

8:05 PM AKDT on August 21, 2014 (GMT -0800)
Anchorage | Change Station
CLOSE
Current Station
Airport
Location: Anchorage,
Elevation: 144 ft
Nearby Weather Stations

Elev 144 ft 61.17 °N, 150.03 °W | Updated 12 minutes ago

Mostly Cloudy
Mostly Cloudy
63 °F
Feels Like 63 °F
N
4
Wind Variable Wind from NW

Today
High -- | Low -- °F
--% Chance of Precip.
Yesterday
High -- | Low -- °F
Precip. -- in
6:23 AM 9:39 PM
Waning Crescent, 10% visible
Pressure 30.14 in
Visibility 10.0 miles
Clouds Few 3500 ft
Scattered Clouds 10000 ft
Mostly Cloudy 20000 ft
Dew Point 55 °F
Humidity 75%
Rainfall 0.00 in
Snow Depth 1 in , 1 in
UV 0 out of 12
Pollen Not available.
Air Quality Not available.
Flu Activity Not available.
METAR PANC 220353Z 31003KT 10SM FEW035TCU SCT100 BKN200 17/13 A3013 RMK AO2 SLP204 PRESENT WX VCSH NE-E TCU NE-SE CB DSNT NW DSIPT T01720128

More Conditions Fewer Conditions

Pressure 30.14 in
Visibility 10.0 miles
Clouds Few 3500 ft
Scattered Clouds 10000 ft
Mostly Cloudy 20000 ft
Dew Point 55 °F
Humidity 75%
Rainfall 0.00 in
Snow Depth 1 in , 1 in
UV 0 out of 12
Pollen Not available.
Air Quality Not available.
Flu Activity Not available.
METAR PANC 220353Z 31003KT 10SM FEW035TCU SCT100 BKN200 17/13 A3013 RMK AO2 SLP204 PRESENT WX VCSH NE-E TCU NE-SE CB DSNT NW DSIPT T01720128

More Conditions Fewer Conditions

10-Day Weather Forecast

Almanac

Astronomy

Aug. 21, 2014 Rise Set
Actual Time 6:23 AM AKDT 9:39 PM AKDT
Civil Twilight 5:32 AM AKDT 10:30 PM AKDT
Nautical Twilight 4:18 AM AKDT 11:42 PM AKDT
Astronomical Twilight 2:35 AM AKDT 1:29 AM AKDT
Moon 2:33 AM AKDT (8/21) 7:38 PM AKDT (8/21)
Length of Visible Light 16h 57m
Length of Day
15h 15m
Tomorrow will be 5m 37s shorter.
Waning Crescent, 10% of the Moon is Illuminated
Aug 22
Waning Crescent
Aug 25
New
Sep 2
First Quarter
Sep 8
Full
Sep 15
Last Quarter

Today's Extremes

State Highs State Lows

Community

WunderPhotos

Upload Photos

1,746,125 photos uploaded!

Nearby

Snow Depth

Station Depth Elevation
Point Mackenzie 1 in 200 ft
Indian Pass 1 in 2300 ft
Turnagain Pass 1 in 1880 ft
Grandview 0 in 1100 ft
Cooper Lake 35 in 1200 ft

Earthquake Activity

City Distance Mag. Time & Date
No recent earthquake activity has been reported nearby.
Minimum magnitude displayed is 2.5.

Coastal Water Temperatures

Place Temperature
No Stations Reporting

Nearby Weather Stations